createdAt,value
2017-10-17T00:00:06.795Z,95.66
2017-10-17T00:02:34.303Z,96.39
2017-10-17T00:05:01.826Z,95.81
2017-10-17T00:07:29.402Z,95.35
2017-10-17T00:09:57.057Z,95.58
2017-10-17T00:12:24.558Z,96.29
2017-10-17T00:14:52.107Z,96.55
2017-10-17T00:17:19.632Z,96.03
2017-10-17T00:19:47.210Z,94.91
2017-10-17T00:22:14.732Z,96.49
2017-10-17T00:24:42.246Z,96.94
2017-10-17T00:27:09.757Z,97.25
2017-10-17T00:29:37.262Z,96.98
2017-10-17T00:32:04.879Z,96.88
2017-10-17T00:34:32.395Z,97.05
2017-10-17T00:37:00.025Z,97.56
2017-10-17T00:39:27.676Z,96.67
2017-10-17T00:41:55.336Z,95.79
2017-10-17T00:44:22.996Z,96.84
2017-10-17T00:46:50.652Z,97.07
2017-10-17T00:49:18.179Z,97.56
2017-10-17T00:51:45.703Z,98.12
2017-10-17T00:54:13.206Z,98.10
2017-10-17T00:56:40.783Z,97.33
2017-10-17T00:59:08.446Z,97.48
2017-10-17T01:01:36.107Z,97.14
2017-10-17T01:04:03.895Z,96.67
2017-10-17T01:06:31.544Z,96.99
2017-10-17T01:08:59.180Z,96.93
2017-10-17T01:11:26.693Z,97.54
2017-10-17T01:13:54.335Z,97.79
2017-10-17T01:16:21.965Z,98.00
2017-10-17T01:18:49.476Z,98.47
2017-10-17T01:21:16.983Z,98.18
2017-10-17T01:23:48.347Z,98.21
2017-10-17T01:26:20.268Z,97.79
2017-10-17T01:28:47.851Z,97.58
2017-10-17T01:31:15.395Z,97.98
2017-10-17T01:33:44.701Z,98.09
2017-10-17T01:36:12.227Z,98.58
2017-10-17T01:38:45.292Z,98.28
2017-10-17T01:41:12.839Z,97.35
2017-10-17T01:43:42.228Z,97.52
2017-10-17T01:46:10.556Z,98.00
2017-10-17T01:48:38.902Z,98.17
2017-10-17T01:51:19.999Z,98.37
2017-10-17T01:53:50.396Z,98.56
2017-10-17T01:56:18.763Z,98.38
2017-10-17T01:58:46.267Z,98.35
2017-10-17T02:01:13.763Z,98.56
2017-10-17T02:03:41.423Z,98.88
2017-10-17T02:06:09.112Z,99.09
2017-10-17T02:08:36.621Z,99.07
2017-10-17T02:11:10.622Z,98.86
2017-10-17T02:13:38.226Z,98.61
2017-10-17T02:16:05.743Z,98.62
2017-10-17T02:18:38.579Z,98.63
2017-10-17T02:21:09.659Z,98.58
2017-10-17T02:23:37.160Z,98.80
2017-10-17T02:26:12.111Z,99.13
2017-10-17T02:28:49.555Z,98.62
2017-10-17T02:31:17.058Z,98.44
2017-10-17T02:34:07.215Z,98.12
2017-10-17T02:36:45.248Z,98.10
2017-10-17T02:39:12.748Z,98.17
2017-10-17T02:41:40.357Z,98.69
2017-10-17T02:44:07.862Z,98.65
2017-10-17T02:46:37.192Z,99.02
2017-10-17T02:49:05.560Z,99.22
2017-10-17T02:51:33.234Z,98.94
2017-10-17T02:54:00.931Z,99.03
2017-10-17T02:56:28.564Z,99.50
2017-10-17T02:58:56.226Z,99.26
2017-10-17T03:01:26.320Z,98.63
2017-10-17T03:03:53.940Z,97.99
2017-10-17T03:06:21.573Z,97.40
2017-10-17T03:08:49.167Z,96.25
2017-10-17T03:11:16.675Z,96.13
2017-10-17T03:13:51.817Z,96.76
2017-10-17T03:16:19.495Z,95.98
2017-10-17T03:18:47.865Z,96.57
2017-10-17T03:21:16.113Z,97.59
2017-10-17T03:23:44.422Z,98.26
2017-10-17T03:26:11.941Z,98.04
2017-10-17T03:28:40.327Z,97.92
2017-10-17T03:31:08.625Z,97.42
2017-10-17T03:33:36.135Z,97.35
2017-10-17T03:39:09.514Z,97.50
2017-10-17T03:41:37.154Z,96.62
2017-10-17T03:44:11.515Z,97.82
2017-10-17T03:46:54.708Z,98.15
2017-10-17T03:49:41.829Z,97.45
2017-10-17T03:52:12.052Z,97.62
2017-10-17T03:54:39.607Z,98.43
2017-10-17T03:57:08.045Z,98.53
2017-10-17T03:59:35.553Z,98.81
2017-10-17T04:02:03.202Z,99.21
2017-10-17T04:04:52.356Z,98.93
2017-10-17T04:07:36.784Z,97.80
2017-10-17T04:10:10.015Z,98.36
2017-10-17T04:12:37.564Z,97.62
2017-10-17T04:15:05.884Z,97.27
2017-10-17T04:17:40.187Z,97.53
2017-10-17T04:20:21.239Z,98.12
2017-10-17T04:26:03.276Z,97.13
2017-10-17T04:28:48.587Z,97.51
2017-10-17T04:31:37.896Z,97.74
2017-10-17T04:37:03.950Z,98.58
2017-10-17T04:39:31.720Z,97.96
2017-10-17T04:41:59.240Z,97.21
2017-10-17T04:47:37.447Z,98.02
2017-10-17T04:50:27.682Z,98.19
2017-10-17T04:56:27.159Z,98.62
2017-10-17T04:59:06.601Z,98.15
2017-10-17T05:01:34.115Z,98.21
2017-10-17T05:04:23.298Z,98.49
2017-10-17T05:06:50.798Z,98.49
2017-10-17T05:09:21.944Z,98.12
2017-10-17T05:11:49.460Z,98.17
2017-10-17T05:14:28.762Z,98.11
2017-10-17T05:17:00.244Z,98.08
2017-10-17T05:19:36.588Z,98.54
2017-10-17T05:22:32.544Z,98.17
2017-10-17T05:25:24.850Z,98.70
2017-10-17T05:27:59.232Z,98.69
2017-10-17T05:30:29.592Z,98.33
2017-10-17T05:33:17.119Z,98.11
2017-10-17T05:35:44.659Z,97.97
2017-10-17T05:38:12.359Z,98.43
2017-10-17T05:40:39.887Z,98.49
2017-10-17T05:43:07.409Z,99.05
2017-10-17T05:45:34.925Z,99.23
2017-10-17T05:48:03.285Z,99.30
2017-10-17T05:53:30.767Z,99.16
2017-10-17T05:55:58.294Z,99.09
2017-10-17T05:58:25.829Z,99.21
2017-10-17T06:00:53.345Z,99.25
2017-10-17T06:03:20.944Z,99.02
2017-10-17T06:05:48.453Z,99.25
2017-10-17T06:08:15.986Z,99.32
2017-10-17T06:10:43.531Z,99.18
2017-10-17T06:13:11.069Z,98.93
2017-10-17T06:15:38.607Z,99.07
2017-10-17T06:18:06.147Z,98.93
2017-10-17T06:20:33.654Z,98.56
2017-10-17T06:23:01.177Z,98.25
2017-10-17T06:25:28.700Z,98.83
2017-10-17T06:27:56.226Z,98.84
2017-10-17T06:30:23.754Z,98.98
2017-10-17T06:32:51.255Z,98.76
2017-10-17T06:35:18.792Z,98.97
2017-10-17T06:37:46.311Z,99.19
2017-10-17T06:40:13.870Z,99.07
2017-10-17T06:42:41.392Z,98.77
2017-10-17T06:45:08.899Z,98.23
2017-10-17T06:47:36.396Z,98.26
2017-10-17T06:50:03.903Z,98.29
2017-10-17T06:52:31.437Z,98.85
2017-10-17T06:54:58.960Z,98.84
2017-10-17T06:57:26.590Z,98.92
2017-10-17T06:59:54.149Z,97.96
2017-10-17T07:02:21.665Z,98.06
2017-10-17T07:04:49.175Z,98.53
2017-10-17T07:07:16.695Z,98.00
2017-10-17T07:09:44.200Z,97.93
2017-10-17T07:12:11.735Z,98.40
2017-10-17T07:14:39.270Z,98.68
2017-10-17T07:17:06.784Z,98.39
2017-10-17T07:19:34.307Z,97.73
2017-10-17T07:22:01.815Z,97.53
2017-10-17T07:24:29.339Z,97.96
2017-10-17T07:26:56.841Z,98.17
2017-10-17T07:29:24.356Z,98.09
2017-10-17T07:31:51.867Z,97.42
2017-10-17T07:34:19.405Z,97.09
2017-10-17T07:36:46.923Z,96.55
2017-10-17T07:39:14.447Z,96.47
2017-10-17T07:41:41.989Z,95.26
2017-10-17T07:44:09.508Z,93.30
2017-10-17T07:46:37.025Z,91.19
2017-10-17T07:49:04.545Z,90.36
2017-10-17T07:51:32.071Z,87.28
2017-10-17T07:53:59.606Z,84.02
2017-10-17T07:56:27.109Z,79.44
2017-10-17T07:58:54.626Z,74.75
2017-10-17T08:01:22.134Z,69.66
2017-10-17T08:03:49.641Z,58.09
2017-10-17T08:06:17.163Z,53.85
2017-10-17T08:08:44.690Z,54.65
2017-10-17T08:11:12.220Z,50.30
2017-10-17T08:13:39.746Z,43.90
2017-10-17T08:16:07.269Z,40.30
2017-10-17T08:18:34.799Z,43.13
2017-10-17T08:21:02.317Z,46.47
2017-10-17T08:23:29.835Z,44.38
2017-10-17T08:25:57.344Z,44.83
2017-10-17T08:28:24.854Z,43.24
2017-10-17T08:30:52.372Z,40.87
2017-10-17T08:33:19.897Z,42.53
2017-10-17T08:35:47.446Z,44.28
2017-10-17T08:38:14.998Z,43.00
2017-10-17T08:40:42.508Z,41.06
2017-10-17T08:43:10.055Z,38.58
2017-10-17T08:45:37.589Z,38.91
2017-10-17T08:48:05.142Z,36.87
2017-10-17T08:50:32.644Z,37.22
2017-10-17T08:53:00.159Z,38.98
2017-10-17T08:55:27.685Z,40.90
2017-10-17T08:57:55.212Z,38.80
2017-10-17T09:00:22.731Z,38.37
2017-10-17T09:02:50.248Z,35.61
2017-10-17T09:05:17.751Z,35.00
2017-10-17T09:07:45.262Z,35.12
2017-10-17T09:10:12.787Z,33.64
2017-10-17T09:12:40.299Z,34.32
2017-10-17T09:15:07.828Z,36.15
2017-10-17T09:17:35.336Z,39.03
2017-10-17T09:20:02.838Z,34.70
2017-10-17T09:22:30.384Z,33.71
2017-10-17T09:24:57.895Z,32.87
2017-10-17T09:27:25.407Z,34.42
2017-10-17T09:29:52.929Z,33.76
2017-10-17T09:32:20.467Z,31.48
2017-10-17T09:34:47.992Z,29.61
2017-10-17T09:37:15.503Z,31.06
2017-10-17T09:39:43.012Z,33.55
2017-10-17T09:42:10.547Z,35.66
2017-10-17T09:44:38.095Z,32.36
2017-10-17T09:47:05.641Z,31.66
2017-10-17T09:49:33.164Z,34.20
2017-10-17T09:52:00.694Z,31.09
2017-10-17T09:54:28.204Z,28.61
2017-10-17T09:56:55.718Z,32.86
2017-10-17T09:59:23.229Z,31.26
2017-10-17T10:01:50.779Z,29.75
2017-10-17T10:04:18.308Z,32.03
2017-10-17T10:06:45.812Z,33.70
2017-10-17T10:09:13.343Z,35.75
2017-10-17T10:11:40.973Z,33.73
2017-10-17T10:14:08.483Z,38.73
2017-10-17T10:16:35.995Z,34.65
2017-10-17T10:19:03.522Z,35.30
2017-10-17T10:21:31.020Z,30.96
2017-10-17T10:23:58.530Z,29.68
2017-10-17T10:26:26.043Z,29.84
2017-10-17T10:28:53.552Z,30.55
2017-10-17T10:31:21.080Z,29.35
2017-10-17T10:33:48.614Z,32.25
2017-10-17T10:36:16.128Z,34.37
2017-10-17T10:38:43.698Z,29.99
2017-10-17T10:41:11.231Z,30.15
2017-10-17T10:43:38.767Z,31.32
2017-10-17T10:46:06.275Z,33.20
2017-10-17T10:48:33.783Z,28.08
2017-10-17T10:51:01.310Z,28.72
2017-10-17T10:53:28.832Z,27.99
2017-10-17T10:55:56.344Z,28.05
2017-10-17T10:58:23.961Z,27.14
2017-10-17T11:00:51.517Z,26.77
2017-10-17T11:03:19.024Z,28.26
2017-10-17T11:05:46.544Z,27.61
2017-10-17T11:08:14.071Z,28.88
2017-10-17T11:10:41.587Z,25.34
2017-10-17T11:13:09.098Z,22.16
2017-10-17T11:15:36.634Z,18.58
2017-10-17T11:18:04.142Z,20.07
2017-10-17T11:20:31.654Z,20.59
2017-10-17T11:22:59.193Z,22.99
2017-10-17T11:25:26.715Z,20.53
2017-10-17T11:27:54.233Z,22.79
2017-10-17T11:30:21.749Z,23.45
2017-10-17T11:32:49.268Z,24.60
2017-10-17T11:35:16.788Z,22.73
2017-10-17T11:37:44.324Z,23.35
2017-10-17T11:40:11.955Z,24.83
2017-10-17T11:42:51.388Z,21.51
2017-10-17T11:45:18.894Z,20.54
2017-10-17T11:47:46.443Z,18.86
2017-10-17T11:50:13.942Z,18.29
2017-10-17T11:52:41.463Z,19.53
2017-10-17T11:55:08.984Z,18.88
2017-10-17T11:57:36.531Z,21.36
2017-10-17T12:00:04.103Z,22.28
2017-10-17T12:02:31.631Z,21.60
2017-10-17T12:04:59.137Z,19.75
2017-10-17T12:07:26.660Z,23.62
2017-10-17T12:09:54.204Z,23.54
2017-10-17T12:12:21.749Z,22.86
2017-10-17T12:14:49.300Z,20.81
2017-10-17T12:17:16.824Z,20.35
2017-10-17T12:19:44.357Z,19.40
2017-10-17T12:22:11.874Z,20.38
2017-10-17T12:24:39.480Z,19.39
2017-10-17T12:27:06.988Z,17.81
2017-10-17T12:29:34.507Z,18.38
2017-10-17T12:32:02.031Z,15.06
2017-10-17T12:34:29.729Z,15.10
2017-10-17T12:36:57.258Z,16.96
2017-10-17T12:39:24.812Z,14.88
2017-10-17T12:41:52.335Z,16.98
2017-10-17T12:44:19.971Z,16.97
2017-10-17T12:46:47.490Z,17.40
2017-10-17T12:49:15.008Z,15.99
2017-10-17T12:51:42.537Z,16.62
2017-10-17T12:54:10.051Z,16.59
2017-10-17T12:56:37.559Z,14.44
2017-10-17T12:59:05.424Z,16.37
2017-10-17T13:01:32.938Z,15.33
2017-10-17T13:04:00.437Z,18.32
2017-10-17T13:06:27.976Z,18.50
2017-10-17T13:08:55.500Z,19.40
2017-10-17T13:11:23.169Z,20.77
2017-10-17T13:13:50.686Z,18.34
2017-10-17T13:16:18.221Z,18.51
2017-10-17T13:18:45.862Z,22.53
2017-10-17T13:21:13.370Z,17.19
2017-10-17T13:23:40.885Z,17.64
2017-10-17T13:26:08.406Z,16.77
2017-10-17T13:28:35.913Z,18.20
2017-10-17T13:31:03.466Z,18.68
2017-10-17T13:33:30.975Z,20.76
2017-10-17T13:35:58.497Z,19.15
2017-10-17T13:38:26.007Z,20.17
2017-10-17T13:40:53.510Z,17.53
2017-10-17T13:43:21.025Z,20.78
2017-10-17T13:45:48.558Z,24.17
2017-10-17T13:48:16.067Z,24.11
2017-10-17T13:50:43.579Z,22.39
2017-10-17T13:53:11.090Z,23.58
2017-10-17T13:55:38.606Z,25.78
2017-10-17T13:58:06.128Z,26.82
2017-10-17T14:00:33.672Z,20.89
2017-10-17T14:03:01.207Z,25.01
2017-10-17T14:05:28.735Z,25.57
2017-10-17T14:07:56.252Z,25.85
2017-10-17T14:10:23.752Z,24.56
2017-10-17T14:12:51.263Z,25.42
2017-10-17T14:15:18.783Z,28.25
2017-10-17T14:17:46.304Z,26.31
2017-10-17T14:20:13.809Z,28.39
2017-10-17T14:22:41.343Z,30.79
2017-10-17T14:25:08.856Z,29.34
2017-10-17T14:27:36.371Z,33.91
2017-10-17T14:30:03.904Z,30.27
2017-10-17T14:32:31.423Z,31.80
2017-10-17T14:34:58.931Z,32.65
2017-10-17T14:37:26.429Z,32.42
2017-10-17T14:39:53.966Z,34.33
2017-10-17T14:42:21.492Z,34.16
2017-10-17T14:44:49.014Z,35.38
2017-10-17T14:47:16.541Z,33.81
2017-10-17T14:49:44.229Z,38.63
2017-10-17T14:52:11.784Z,44.63
2017-10-17T14:54:39.335Z,40.91
2017-10-17T14:57:06.900Z,41.61
2017-10-17T14:59:34.455Z,41.96
2017-10-17T15:02:01.980Z,44.80
2017-10-17T15:04:29.496Z,48.99
2017-10-17T15:06:57.022Z,50.63
2017-10-17T15:09:24.537Z,50.93
2017-10-17T15:11:52.056Z,53.29
2017-10-17T15:14:19.612Z,53.29
2017-10-17T15:16:47.160Z,54.97
2017-10-17T15:19:14.680Z,56.49
2017-10-17T15:21:42.205Z,56.68
2017-10-17T15:24:09.711Z,56.69
2017-10-17T15:26:37.228Z,56.81
2017-10-17T15:29:04.753Z,53.87
2017-10-17T15:31:32.266Z,59.45
2017-10-17T15:33:59.785Z,59.81
2017-10-17T15:36:27.329Z,59.86
2017-10-17T15:38:54.939Z,60.68
2017-10-17T15:41:22.467Z,60.95
2017-10-17T15:43:50.003Z,59.15
2017-10-17T15:46:17.575Z,57.70
2017-10-17T15:48:45.107Z,60.47
2017-10-17T15:51:12.635Z,62.06
2017-10-17T15:53:40.154Z,65.01
2017-10-17T15:56:07.685Z,64.49
2017-10-17T15:58:35.280Z,62.07
2017-10-17T16:01:02.797Z,62.99
2017-10-17T16:03:30.320Z,68.84
2017-10-17T16:05:57.833Z,67.89
2017-10-17T16:08:25.364Z,67.33
2017-10-17T16:10:52.880Z,67.20
2017-10-17T16:13:20.406Z,67.55
2017-10-17T16:15:48.024Z,69.84
2017-10-17T16:18:15.554Z,69.74
2017-10-17T16:20:43.077Z,70.72
2017-10-17T16:23:10.608Z,72.11
2017-10-17T16:25:38.133Z,72.82
2017-10-17T16:28:05.663Z,73.92
2017-10-17T16:30:33.191Z,73.50
2017-10-17T16:33:00.745Z,76.12
2017-10-17T16:35:28.267Z,75.77
2017-10-17T16:37:55.780Z,74.75
2017-10-17T16:40:23.358Z,75.79
2017-10-17T16:42:50.883Z,78.64
2017-10-17T16:45:18.488Z,77.21
2017-10-17T16:47:46.020Z,78.73
2017-10-17T16:50:13.600Z,77.92
2017-10-17T16:52:41.145Z,79.42
2017-10-17T16:55:08.685Z,81.04
2017-10-17T16:57:36.246Z,81.21
2017-10-17T17:00:03.803Z,81.83
2017-10-17T17:02:31.346Z,82.50
2017-10-17T17:04:58.918Z,82.26
2017-10-17T17:07:26.451Z,82.24
2017-10-17T17:09:53.968Z,82.82
2017-10-17T17:12:21.493Z,82.08
2017-10-17T17:14:49.031Z,81.08
2017-10-17T17:17:16.578Z,83.16
2017-10-17T17:19:44.082Z,83.57
2017-10-17T17:22:11.594Z,83.72
2017-10-17T17:24:39.135Z,84.68
2017-10-17T17:27:06.667Z,84.83
2017-10-17T17:29:34.199Z,84.45
2017-10-17T17:32:01.729Z,84.80
2017-10-17T17:34:29.245Z,85.16
2017-10-17T17:36:56.770Z,84.33
2017-10-17T17:39:24.315Z,83.83
2017-10-17T17:41:51.833Z,84.95
2017-10-17T17:44:19.374Z,87.55
2017-10-17T17:46:46.948Z,87.74
2017-10-17T17:49:14.496Z,86.56
2017-10-17T17:51:42.012Z,85.74
2017-10-17T17:54:09.562Z,85.79
2017-10-17T17:56:37.138Z,86.94
2017-10-17T17:59:04.779Z,86.92
2017-10-17T18:01:32.300Z,85.97
2017-10-17T18:03:59.832Z,86.85
2017-10-17T18:06:27.367Z,86.23
2017-10-17T18:08:54.891Z,87.28
2017-10-17T18:11:22.433Z,88.00
2017-10-17T18:13:49.979Z,89.78
2017-10-17T18:16:17.598Z,88.24
2017-10-17T18:18:45.153Z,88.18
2017-10-17T18:21:12.688Z,88.08
2017-10-17T18:23:40.214Z,88.69
2017-10-17T18:26:07.824Z,89.32
2017-10-17T18:28:35.356Z,87.30
2017-10-17T18:31:02.905Z,88.98
2017-10-17T18:33:30.425Z,88.54
2017-10-17T18:36:00.015Z,88.92
2017-10-17T18:38:27.671Z,87.44
2017-10-17T18:40:55.247Z,88.21
2017-10-17T18:43:22.770Z,88.47
2017-10-17T18:45:50.288Z,87.43
2017-10-17T18:48:17.807Z,88.28
2017-10-17T18:50:45.352Z,88.86
2017-10-17T18:53:12.880Z,89.27
2017-10-17T18:55:40.442Z,89.66
2017-10-17T18:58:07.964Z,88.62
2017-10-17T19:00:36.707Z,88.76
2017-10-17T19:03:04.265Z,89.06
2017-10-17T19:05:31.818Z,89.16
2017-10-17T19:07:59.347Z,89.02
2017-10-17T19:10:26.874Z,89.78
2017-10-17T19:12:54.433Z,88.85
2017-10-17T19:15:21.985Z,87.48
2017-10-17T19:17:49.513Z,87.92
2017-10-17T19:20:17.113Z,88.01
2017-10-17T19:22:44.677Z,88.23
2017-10-17T19:25:12.219Z,89.93
2017-10-17T19:27:39.913Z,91.88
2017-10-17T19:30:07.466Z,91.47
2017-10-17T19:32:35.023Z,91.31
2017-10-17T19:35:02.582Z,90.58
2017-10-17T19:37:30.125Z,90.89
2017-10-17T19:39:57.674Z,91.61
2017-10-17T19:42:25.233Z,91.78
2017-10-17T19:44:52.784Z,91.20
2017-10-17T19:47:20.389Z,91.45
2017-10-17T19:49:47.978Z,92.14
2017-10-17T19:52:15.495Z,92.30
2017-10-17T19:54:43.002Z,91.77
2017-10-17T19:57:10.573Z,92.36
2017-10-17T19:59:38.084Z,91.75
2017-10-17T20:02:05.599Z,90.51
2017-10-17T20:04:33.143Z,90.91
2017-10-17T20:07:00.668Z,91.53
2017-10-17T20:09:28.200Z,90.80
2017-10-17T20:11:55.736Z,89.43
2017-10-17T20:14:23.239Z,90.32
2017-10-17T20:16:50.776Z,92.46
2017-10-17T20:19:18.303Z,91.67
2017-10-17T20:21:45.856Z,89.74
2017-10-17T20:24:13.411Z,91.24
2017-10-17T20:26:40.927Z,90.90
2017-10-17T20:29:08.519Z,92.67
2017-10-17T20:31:36.028Z,92.67
2017-10-17T20:34:03.531Z,93.42
2017-10-17T20:36:31.059Z,94.25
2017-10-17T20:38:58.571Z,93.53
2017-10-17T20:41:26.109Z,92.60
2017-10-17T20:43:53.672Z,91.11
2017-10-17T20:46:21.211Z,92.21
2017-10-17T20:48:48.772Z,92.17
2017-10-17T20:51:16.272Z,92.47
2017-10-17T20:53:43.795Z,93.24
2017-10-17T20:56:11.367Z,93.10
2017-10-17T20:58:38.920Z,94.13
2017-10-17T21:01:06.458Z,95.08
2017-10-17T21:03:34.095Z,94.94
2017-10-17T21:06:01.666Z,94.14
2017-10-17T21:08:29.222Z,92.12
2017-10-17T21:10:56.798Z,93.38
2017-10-17T21:13:24.334Z,91.96
2017-10-17T21:15:52.001Z,92.53
2017-10-17T21:18:19.558Z,93.30
2017-10-17T21:20:47.105Z,94.42
2017-10-17T21:23:14.647Z,95.39
2017-10-17T21:25:42.181Z,95.78
2017-10-17T21:28:09.731Z,96.05
2017-10-17T21:30:37.296Z,95.78
2017-10-17T21:33:04.816Z,93.54
2017-10-17T21:35:32.464Z,92.62
2017-10-17T21:37:59.996Z,93.71
2017-10-17T21:40:27.507Z,95.12
2017-10-17T21:42:55.034Z,95.47
2017-10-17T21:45:22.704Z,95.92
2017-10-17T21:47:50.224Z,95.12
2017-10-17T21:50:17.770Z,94.68
2017-10-17T21:52:45.299Z,94.70
2017-10-17T21:55:12.819Z,94.33
2017-10-17T21:57:40.331Z,94.49
2017-10-17T22:00:07.868Z,95.25
2017-10-17T22:03:03.627Z,95.47
2017-10-17T22:05:39.049Z,95.35
2017-10-17T22:08:06.876Z,95.81
2017-10-17T22:10:34.398Z,95.95
2017-10-17T22:13:01.922Z,95.66
2017-10-17T22:15:29.454Z,94.42
2017-10-17T22:17:56.984Z,93.20
2017-10-17T22:20:24.491Z,94.24
2017-10-17T22:22:52.011Z,94.85
2017-10-17T22:25:19.525Z,94.22
2017-10-17T22:27:47.033Z,93.54
2017-10-17T22:30:14.557Z,94.54
2017-10-17T22:32:42.160Z,94.75
2017-10-17T22:35:09.728Z,94.54
2017-10-17T22:37:37.247Z,94.76
2017-10-17T22:40:04.766Z,95.49
2017-10-17T22:42:32.287Z,94.97
2017-10-17T22:44:59.808Z,95.41
2017-10-17T22:47:27.313Z,95.42
2017-10-17T22:49:54.815Z,95.74
2017-10-17T22:52:22.328Z,95.58
2017-10-17T22:54:49.853Z,95.23
2017-10-17T22:57:17.347Z,94.75
2017-10-17T22:59:44.858Z,94.23
2017-10-17T23:02:12.377Z,94.83
2017-10-17T23:04:39.893Z,95.76
2017-10-17T23:07:07.393Z,95.87
2017-10-17T23:09:34.900Z,96.11
2017-10-17T23:12:02.411Z,96.00
2017-10-17T23:14:29.922Z,96.80
2017-10-17T23:17:09.487Z,96.95
2017-10-17T23:19:48.949Z,96.82
2017-10-17T23:22:16.457Z,96.56
2017-10-17T23:24:43.979Z,97.12
2017-10-17T23:27:11.506Z,97.16
2017-10-17T23:29:39.034Z,97.57
2017-10-17T23:32:06.552Z,97.10
2017-10-17T23:34:34.066Z,96.83
2017-10-17T23:37:01.597Z,96.94
2017-10-17T23:39:29.168Z,96.81
2017-10-17T23:41:56.682Z,97.39
2017-10-17T23:44:24.199Z,97.93
2017-10-17T23:46:51.709Z,98.04
2017-10-17T23:49:19.221Z,98.10
2017-10-17T23:51:46.725Z,98.05
2017-10-17T23:54:14.254Z,97.76
2017-10-17T23:56:41.765Z,97.35
2017-10-17T23:59:09.274Z,97.42
